Latest Coastal Weather Observations for Low Rocky Point

IDT60701

Issued at 9:12 am EDT Thursday 19 October 2017 (issued every 10 minutes, with the page automatically refreshed every 10 minutes)

About coastal observations | Map of coastal stations | Coastal observations for TAS | Marine services | Other Formats
Station Details ID: 097080 Name: LOW ROCKY POINT Lat: -42.98 Lon: 145.50 Height: 34.0 m
Data from the previous 72 hours. | See also: Recent months at Low Rocky Point
Date/Time
EDT
Temp
°C
Wind Pressure Rain since
9am
mm
Weather Cloud Vis
km
Sea
Height
m
Swell
Dir  Spd
kts
Gust
kts
hPa Trend Height
m
Period
s
Dir
19/09:00am 14.8 N 17 22 1009.6 - 8.4 Rain - - - - - -
19/08:30am 14.6 N 13 20 1010.3 - 7.8 - - - - - - -
19/08:00am 14.7 N 13 17 1010.7 - 6.2 Rain - - - - - -
19/07:30am 14.7 N 15 23 1009.8 - 4.8 - - - - - - -
19/07:00am 14.4 N 14 20 1009.9 - 3.0 Recent precip. - - - - - -
19/06:30am 14.5 NNW 14 19 1010.9 - 2.2 - - - - - - -
19/06:00am 15.1 NNW 12 16 1010.8 - 1.4 Rain - - - - - -
19/05:30am 15.0 NNE 10 12 1010.1 - 1.0 - - - - - - -
19/05:00am 14.7 N 8 11 1010.0 - 0.8 - - - - - - -
19/04:30am 14.6 NNW 9 11 1011.1 - 0.8 - - - - - - -
19/04:00am 14.4 NW 10 13 1011.4 - 0.8 Recent precip. - - - - - -
19/03:30am 14.5 NW 12 15 1011.9 - 0.8 - - - - - - -
19/03:00am 15.2 NW 16 21 1012.1 - 0.6 Recent precip. - - - - - -
19/02:30am 15.9 N 11 15 1012.1 - 0.0 - - - - - - -
19/02:00am 15.5 N 10 14 1012.7 - 0.0 - - - - - - -
19/01:30am 16.2 NNW 12 17 1013.3 - 0.0 - - - - - - -
19/01:00am 16.0 NW 16 27 1013.5 - 0.0 - - - - - - -
19/12:52am 15.9 NNW 13 27 1013.4 - 0.0 - - - - - - -
19/12:30am 15.8 NW 15 22 1014.1 - 0.0 - - - - - - -
19/12:07am 16.2 WNW 15 25 1013.6 - 0.0 - - - - - - -
19/12:00am 16.2 WNW 18 21 1013.1 - 0.0 - - - - - - -
 
Date/Time
EDT
Temp
°C
Wind Pressure Rain since
9am
mm
Weather Cloud Vis
km
Sea
Height
m
Swell
Dir  Spd
kts
Gust
kts
hPa Trend Height
m
Period
s
Dir
18/11:53pm 16.9 WNW 21 31 1013.3 - 0.0 - - - - - - -
18/11:46pm 19.3 NNW 14 28 1013.6 - 0.0 - - - - - - -
18/11:30pm 22.5 N 12 17 1012.7 - 0.0 - - - - - - -
18/11:00pm 21.4 N 9 12 1012.8 - 0.0 - - - - - - -
18/10:30pm 20.5 N 8 12 1013.1 - 0.0 - - - - - - -
18/10:00pm 21.2 N 8 12 1013.3 - 0.0 - - - - - - -
18/09:30pm 22.0 N 12 15 1013.4 - 0.0 - - - - - - -
18/09:00pm 20.8 NNW 8 11 1013.6 - 0.0 - - - - - - -
18/08:30pm 24.5 N 13 17 1013.4 - 0.0 - - - - - - -
18/08:00pm 24.4 NNW 14 17 1013.1 - 0.0 - - - - - - -
18/07:30pm 23.7 NNW 15 20 1013.2 - 0.0 - - - - - - -
18/07:00pm 22.8 NNW 17 26 1013.2 - 0.0 - - - - - - -
18/06:30pm 22.3 NNW 18 23 1013.4 - 0.0 - - - - - - -
18/06:00pm 23.1 NNW 18 22 1013.3 - 0.0 - - - - - - -
18/05:30pm 23.0 NNW 19 27 1013.6 - 0.0 - - - - - - -
18/05:00pm 23.7 NNW 19 26 1013.6 - 0.0 - - - - - - -
18/04:30pm 25.1 NNW 19 25 1014.0 - 0.0 - - - - - - -
18/04:00pm 25.6 NNW 20 26 1014.2 - 0.0 - - - - - - -
18/03:30pm 25.3 NNW 21 27 1014.7 - 0.0 - - - - - - -
18/03:00pm 26.9 NNW 20 25 1015.1 - 0.0 - - - - - - -
18/02:30pm 25.9 NNW 19 27 1015.6 - 0.0 - - - - - - -
18/02:00pm 28.5 NNW 17 23 1016.0 - 0.0 - - - - - - -
18/01:57pm 29.2 NNW 17 23 1016.1 - 0.0 - - - - - - -
18/01:30pm 24.2 NNW 17 23 1016.5 - 0.0 - - - - - - -
18/01:00pm 22.7 NNW 18 24 1016.9 - 0.0 - - - - - - -
18/12:30pm 21.5 NNW 17 23 1017.2 - 0.0 - - - - - - -
18/12:00pm 21.8 NNW 16 21 1017.6 - 0.0 - - - - - - -
18/11:42am 22.3 NNW 15 20 1017.7 - 0.0 - - - - - - -
18/11:30am 27.6 NNW 16 22 1017.7 - 0.0 - - - - - - -
18/11:00am 26.3 N 16 22 1017.9 - 0.0 - - - - - - -
18/10:30am 26.7 N 19 27 1017.9 - 0.0 - - - - - - -
18/10:00am 25.8 N 17 26 1018.2 - 0.0 - - - - - - -
18/09:30am 23.2 NNE 15 21 1018.3 - 0.0 - - - - - - -
18/09:00am 21.1 NNE 15 20 1018.4 - 0.2 - - - - - - -
18/08:30am 19.7 NNE 15 19 1018.6 - 0.2 - - - - - - -
18/08:00am 19.4 NNE 17 24 1018.6 - 0.2 - - - - - - -
18/07:30am 18.8 NNE 17 21 1018.4 - 0.2 - - - - - - -
18/07:00am 17.8 NNE 15 20 1018.3 - 0.2 - - - - - - -
18/06:30am 17.6 NNE 14 18 1018.3 - 0.2 - - - - - - -
18/06:00am 17.6 NNE 14 17 1018.2 - 0.2 - - - - - - -
18/05:30am 17.4 NNE 12 15 1018.3 - 0.2 - - - - - - -
18/05:00am 17.3 NNE 13 16 1018.5 - 0.2 - - - - - - -
18/04:30am 17.0 N 10 13 1018.6 - 0.2 - - - - - - -
18/04:00am 17.6 N 13 16 1018.5 - 0.2 - - - - - - -
18/03:30am 17.0 N 9 12 1018.4 - 0.2 - - - - - - -
18/03:00am 17.6 N 10 14 1018.5 - 0.2 - - - - - - -
18/02:30am 16.7 N 8 11 1018.5 - 0.2 - - - - - - -
18/02:00am 17.2 N 12 13 1018.4 - 0.2 - - - - - - -
18/01:30am 18.2 N 11 13 1018.5 - 0.2 - - - - - - -
18/01:00am 18.1 NNW 11 14 1018.8 - 0.2 - - - - - - -
18/12:30am 18.7 N 10 15 1018.7 - 0.2 - - - - - - -
18/12:00am 18.5 N 11 14 1018.7 - 0.2 - - - - - - -
 
Date/Time
EDT
Temp
°C
Wind Pressure Rain since
9am
mm
Weather Cloud Vis
km
Sea
Height
m
Swell
Dir  Spd
kts
Gust
kts
hPa Trend Height
m
Period
s
Dir
17/11:30pm 19.2 N 12 16 1019.0 - 0.2 - - - - - - -
17/11:00pm 19.3 NNW 9 12 1019.4 - 0.2 - - - - - - -
17/10:30pm 20.5 N 14 18 1019.1 - 0.2 - - - - - - -
17/10:00pm 20.8 N 15 20 1019.3 - 0.2 - - - - - - -
17/09:30pm 20.6 N 13 17 1020.0 - 0.2 - - - - - - -
17/09:00pm 20.8 N 14 17 1020.1 - 0.2 - - - - - - -
17/08:30pm 20.8 N 13 16 1020.1 - 0.2 - - - - - - -
17/08:00pm 21.1 N 12 16 1020.0 - 0.2 - - - - - - -
17/07:30pm 21.3 NNW 14 19 1019.8 - 0.2 - - - - - - -
17/07:00pm 20.2 NNW 17 24 1019.7 - 0.2 - - - - - - -
17/06:30pm 21.4 NNW 18 23 1019.6 - 0.2 - - - - - - -
17/06:00pm 21.6 NNW 19 25 1019.6 - 0.2 - - - - - - -
17/05:30pm 21.2 NNW 17 25 1019.5 - 0.2 - - - - - - -
17/05:00pm 22.0 NNW 18 24 1019.5 - 0.2 - - - - - - -
17/04:30pm 22.3 NNW 20 27 1019.6 - 0.2 - - - - - - -
17/04:00pm 22.6 NNW 20 25 1019.6 - 0.2 - - - - - - -
17/03:30pm 23.5 NNW 21 27 1019.7 - 0.2 - - - - - - -
17/03:00pm 24.0 NNW 20 25 1019.9 - 0.2 - - - - - - -
17/02:30pm 23.7 NNW 17 22 1020.1 - 0.2 - - - - - - -
17/02:00pm 24.2 NNW 15 19 1020.4 - 0.2 - - - - - - -
17/01:30pm 22.5 NNW 12 16 1020.7 - 0.2 - - - - - - -
17/01:00pm 20.9 NNW 11 13 1020.9 - 0.2 - - - - - - -
17/12:30pm 18.4 NW 7 9 1021.3 - 0.2 - - - - - - -
17/12:00pm 18.0 WNW 6 7 1021.6 - 0.2 - - - - - - -
17/11:30am 17.5 NW 1 3 1021.7 - 0.2 - - - - - - -
17/11:00am 16.4 NW 2 4 1021.8 - 0.2 Recent precip. - - - - - -
17/10:30am 15.3 WNW 2 5 1021.9 - 0.2 - - - - - - -
17/10:00am 14.4 WNW 3 5 1022.2 - 0.0 - - - - - - -
17/09:30am 13.9 NW 2 5 1022.1 - 0.0 - - - - - - -
17/09:00am 13.0 NW 4 6 1022.1 - 0.2 - - - - - - -
17/08:30am 12.2 N 4 5 1022.2 - 0.2 - - - - - - -
17/08:00am 9.5 ENE 5 7 1022.1 - 0.2 - - - - - - -
17/07:30am 8.6 ENE 6 6 1021.9 - 0.2 - - - - - - -
17/07:00am 7.4 NNE 5 7 1021.8 - 0.2 - - - - - - -
17/06:30am 8.4 NNW 4 4 1021.7 - 0.2 - - - - - - -
17/06:00am 8.2 N 5 6 1021.4 - 0.2 - - - - - - -
17/05:30am 8.8 N 5 6 1021.3 - 0.2 - - - - - - -
17/05:00am 9.2 NNE 4 5 1021.3 - 0.2 - - - - - - -
17/04:30am 10.1 NNW 5 6 1021.5 - 0.2 - - - - - - -
17/04:00am 10.0 NNW 6 7 1021.4 - 0.2 - - - - - - -
17/03:30am 10.3 NNW 6 7 1021.6 - 0.2 - - - - - - -
17/03:00am 10.6 NNW 7 9 1021.7 - 0.2 - - - - - - -
17/02:30am 10.8 NNW 7 9 1021.9 - 0.2 - - - - - - -
17/02:00am 10.9 NW 9 11 1022.1 - 0.2 - - - - - - -
17/01:30am 9.9 NNW 8 9 1022.6 - 0.2 - - - - - - -
17/01:00am 9.2 NNW 6 7 1022.8 - 0.2 - - - - - - -
17/12:30am 9.3 NNW 6 6 1022.9 - 0.2 - - - - - - -
17/12:00am 9.9 NNW 6 7 1023.0 - 0.2 - - - - - - -
 
Date/Time
EDT
Temp
°C
Wind Pressure Rain since
9am
mm
Weather Cloud Vis
km
Sea
Height
m
Swell
Dir  Spd
kts
Gust
kts
hPa Trend Height
m
Period
s
Dir
16/11:30pm 9.6 NNW 8 8 1023.1 - 0.2 - - - - - - -
16/11:00pm 9.5 NNW 7 8 1023.5 - 0.2 - - - - - - -
16/10:30pm 9.7 N 8 9 1023.5 - 0.2 - - - - - - -
16/10:00pm 10.5 NNW 8 11 1024.0 - 0.2 - - - - - - -
16/09:30pm 10.2 NNW 8 10 1024.3 - 0.2 - - - - - - -
16/09:00pm 10.5 NNW 7 9 1024.3 - 0.2 - - - - - - -
16/08:30pm 11.2 NNW 7 9 1024.5 - 0.2 - - - - - - -
16/08:00pm 11.2 NW 8 11 1024.4 - 0.2 - - - - - - -
16/07:30pm 11.3 NW 9 11 1024.3 - 0.2 - - - - - - -
16/07:00pm 11.7 NW 9 11 1024.0 - 0.2 - - - - - - -
16/06:30pm 11.9 WNW 9 12 1023.9 - 0.2 - - - - - - -
16/06:00pm 12.0 NW 10 14 1023.7 - 0.2 - - - - - - -
16/05:30pm 12.8 NW 13 17 1023.5 - 0.2 - - - - - - -
16/05:00pm 12.2 NW 17 21 1023.3 - 0.2 - - - - - - -
16/04:30pm 12.0 NW 18 22 1023.4 - 0.2 - - - - - - -
16/04:00pm 12.1 NW 18 22 1023.6 - 0.2 - - - - - - -
16/03:30pm 12.5 NW 18 22 1023.7 - 0.2 - - - - - - -
16/03:00pm 12.9 NW 18 21 1023.7 - 0.2 - - - - - - -
16/02:30pm 13.0 NW 19 23 1024.0 - 0.2 - - - - - - -
16/02:00pm 13.5 NW 17 20 1024.2 - 0.2 Recent precip. - - - - - -
16/01:30pm 13.7 NW 14 18 1024.5 - 0.2 - - - - - - -
16/01:00pm 13.3 NW 13 15 1024.6 - 0.0 - - - - - - -
16/12:30pm 13.3 NW 12 15 1024.9 - 0.0 - - - - - - -
16/12:00pm 12.2 NW 12 14 1025.1 - 0.0 - - - - - - -
16/11:30am 12.1 NW 11 13 1025.3 - 0.0 - - - - - - -
16/11:00am 12.0 NW 8 10 1025.6 - 0.0 - - - - - - -
16/10:30am 11.3 NW 8 10 1025.7 - 0.0 - - - - - - -
16/10:00am 11.3 NW 7 10 1025.7 - 0.0 - - - - - - -
16/09:30am 10.1 NW 9 11 1025.9 - 0.0 - - - - - - -

Other Formats:

Comma delimited format used in spreadsheet applications
http://www.bom.gov.au/fwo/IDT60701/IDT60701.95961.axf

JavaScript Object Notation format (JSON) in row-major order
http://www.bom.gov.au/fwo/IDT60701/IDT60701.95961.json